sensor_id;sensor_type;location;lat;lon;timestamp;pressure;altitude;pressure_sealevel;temperature;humidity
69570;BME280;56781;42.292;23.146;2024-03-23T00:54:29;95437.38;;;-2.02;79.74
69570;BME280;56781;42.292;23.146;2024-03-23T00:56:56;95513.44;;;-1.86;79.93
69570;BME280;56781;42.292;23.146;2024-03-23T00:59:23;94879.47;;;-5.76;79.11
69570;BME280;56781;42.292;23.146;2024-03-23T01:01:53;94988.94;;;-5.08;78.23
69570;BME280;56781;42.292;23.146;2024-03-23T01:04:19;95551.50;;;-1.63;79.38
69570;BME280;56781;42.292;23.146;2024-03-23T01:06:46;95437.06;;;-2.30;79.92
69570;BME280;56781;42.292;23.146;2024-03-23T01:09:13;95196.72;;;-3.90;80.15
69570;BME280;56781;42.292;23.146;2024-03-23T01:11:42;95565.72;;;-1.71;81.16
69570;BME280;56781;42.292;23.146;2024-03-23T01:14:08;94780.28;;;-7.30;80.77
69570;BME280;56781;42.292;23.146;2024-03-23T01:16:36;95549.28;;;-1.99;81.62
69570;BME280;56781;42.292;23.146;2024-03-23T01:19:02;95566.53;;;-2.09;81.79
69570;BME280;56781;42.292;23.146;2024-03-23T01:21:29;94711.53;;;-7.80;81.53
69570;BME280;56781;42.292;23.146;2024-03-23T01:23:56;95459.75;;;-2.83;83.17
69570;BME280;56781;42.292;23.146;2024-03-23T01:26:23;95091.53;;;-5.15;84.05
69570;BME280;56781;42.292;23.146;2024-03-23T01:28:51;95495.13;;;-2.52;83.56
69570;BME280;56781;42.292;23.146;2024-03-23T01:31:18;94879.94;;;-6.35;82.62
69570;BME280;56781;42.292;23.146;2024-03-23T01:33:44;95569.88;;;-1.82;81.48
69570;BME280;56781;42.292;23.146;2024-03-23T01:36:12;95548.22;;;-1.77;82.56
69570;BME280;56781;42.292;23.146;2024-03-23T01:38:38;95203.19;;;-4.09;82.66
69570;BME280;56781;42.292;23.146;2024-03-23T01:41:05;95216.41;;;-4.12;82.21
69570;BME280;56781;42.292;23.146;2024-03-23T01:43:32;95581.44;;;-1.61;81.53
69570;BME280;56781;42.292;23.146;2024-03-23T01:46:01;94612.97;;;-7.87;81.93
69570;BME280;56781;42.292;23.146;2024-03-23T01:48:27;95110.50;;;-4.64;81.89
69570;BME280;56781;42.292;23.146;2024-03-23T01:50:54;95477.31;;;-2.18;82.21
69570;BME280;56781;42.292;23.146;2024-03-23T01:53:21;95196.09;;;-4.05;81.55
69570;BME280;56781;42.292;23.146;2024-03-23T01:55:50;95155.69;;;-4.76;81.88
69570;BME280;56781;42.292;23.146;2024-03-23T01:58:16;95410.31;;;-2.86;81.43
69570;BME280;56781;42.292;23.146;2024-03-23T02:00:44;94823.97;;;-6.96;81.69
69570;BME280;56781;42.292;23.146;2024-03-23T02:03:24;95539.00;;;-2.27;82.58
69570;BME280;56781;42.292;23.146;2024-03-23T02:05:52;94992.25;;;-6.07;83.27
69570;BME280;56781;42.292;23.146;2024-03-23T02:08:20;94924.09;;;-6.34;84.05
69570;BME280;56781;42.292;23.146;2024-03-23T02:10:48;95418.56;;;-3.00;83.43
69570;BME280;56781;42.292;23.146;2024-03-23T02:13:15;95563.06;;;-2.18;82.36
69570;BME280;56781;42.292;23.146;2024-03-23T02:15:42;95538.75;;;-2.51;82.18
69570;BME280;56781;42.292;23.146;2024-03-23T02:18:10;95118.63;;;-5.30;82.73
69570;BME280;56781;42.292;23.146;2024-03-23T02:20:39;94750.47;;;-7.09;81.89
69570;BME280;56781;42.292;23.146;2024-03-23T02:23:13;95553.56;;;-1.68;81.89
69570;BME280;56781;42.292;23.146;2024-03-23T02:25:40;95182.50;;;-4.20;81.00
69570;BME280;56781;42.292;23.146;2024-03-23T02:28:07;94761.56;;;-7.65;79.73
69570;BME280;56781;42.292;23.146;2024-03-23T02:30:34;94856.66;;;-6.96;80.19
69570;BME280;56781;42.292;23.146;2024-03-23T02:33:01;94999.16;;;-6.46;81.44
69570;BME280;56781;42.292;23.146;2024-03-23T02:35:28;94781.28;;;-7.57;81.36
69570;BME280;56781;42.292;23.146;2024-03-23T02:37:54;95155.06;;;-4.99;80.87
69570;BME280;56781;42.292;23.146;2024-03-23T02:40:24;95319.75;;;-4.21;81.29
69570;BME280;56781;42.292;23.146;2024-03-23T02:42:51;95110.88;;;-5.75;82.22
69570;BME280;56781;42.292;23.146;2024-03-23T02:45:18;95373.78;;;-4.42;82.72
69570;BME280;56781;42.292;23.146;2024-03-23T02:47:45;95569.81;;;-2.76;83.00
69570;BME280;56781;42.292;23.146;2024-03-23T02:50:12;94888.22;;;-7.03;82.20
69570;BME280;56781;42.292;23.146;2024-03-23T02:52:40;95595.00;;;-2.60;82.73
69570;BME280;56781;42.292;23.146;2024-03-23T02:55:08;95098.06;;;-5.55;83.31
69570;BME280;56781;42.292;23.146;2024-03-23T02:57:36;95591.44;;;-2.26;82.79
69570;BME280;56781;42.292;23.146;2024-03-23T03:00:04;94884.59;;;-6.67;80.44
69570;BME280;56781;42.292;23.146;2024-03-23T03:02:32;94875.84;;;-7.07;79.73
69570;BME280;56781;42.292;23.146;2024-03-23T03:04:59;94913.94;;;-7.21;82.41
69570;BME280;56781;42.292;23.146;2024-03-23T03:07:26;95357.16;;;-4.21;82.69
69570;BME280;56781;42.292;23.146;2024-03-23T03:09:53;95308.44;;;-4.53;81.67
69570;BME280;56781;42.292;23.146;2024-03-23T03:12:19;95154.66;;;-5.41;81.62
69570;BME280;56781;42.292;23.146;2024-03-23T03:14:48;95445.97;;;-3.38;81.04
69570;BME280;56781;42.292;23.146;2024-03-23T03:17:14;95202.53;;;-5.27;81.45
69570;BME280;56781;42.292;23.146;2024-03-23T03:19:42;95200.47;;;-5.39;81.52
69570;BME280;56781;42.292;23.146;2024-03-23T03:22:08;95611.69;;;-2.80;82.57
69570;BME280;56781;42.292;23.146;2024-03-23T03:24:35;94799.19;;;-7.94;81.55
69570;BME280;56781;42.292;23.146;2024-03-23T03:27:02;95157.34;;;-5.41;81.18
69570;BME280;56781;42.292;23.146;2024-03-23T03:29:29;94807.53;;;-7.87;80.46
69570;BME280;56781;42.292;23.146;2024-03-23T03:32:03;94655.34;;;-9.21;82.20
69570;BME280;56781;42.292;23.146;2024-03-23T03:34:31;95304.06;;;-5.06;83.80
69570;BME280;56781;42.292;23.146;2024-03-23T03:36:57;95397.31;;;-4.44;84.13
69570;BME280;56781;42.292;23.146;2024-03-23T03:39:25;95430.84;;;-4.60;83.03
69570;BME280;56781;42.292;23.146;2024-03-23T03:41:52;95364.28;;;-4.65;83.18
69570;BME280;56781;42.292;23.146;2024-03-23T03:44:20;95170.50;;;-5.93;84.34
69570;BME280;56781;42.292;23.146;2024-03-23T03:46:46;95060.78;;;-6.21;83.32
69570;BME280;56781;42.292;23.146;2024-03-23T03:49:15;95493.63;;;-3.66;82.17
69570;BME280;56781;42.292;23.146;2024-03-23T03:51:41;95147.69;;;-5.77;82.68
69570;BME280;56781;42.292;23.146;2024-03-23T03:54:11;94925.63;;;-6.91;81.28
69570;BME280;56781;42.292;23.146;2024-03-23T03:56:37;95095.34;;;-5.73;79.38
69570;BME280;56781;42.292;23.146;2024-03-23T03:59:05;95226.69;;;-5.24;81.84
69570;BME280;56781;42.292;23.146;2024-03-23T04:01:32;94732.72;;;-8.51;82.70
69570;BME280;56781;42.292;23.146;2024-03-23T04:03:59;95133.91;;;-5.70;81.72
69570;BME280;56781;42.292;23.146;2024-03-23T04:06:27;95577.34;;;-2.78;82.42
69570;BME280;56781;42.292;23.146;2024-03-23T04:08:54;94761.31;;;-7.86;81.20
69570;BME280;56781;42.292;23.146;2024-03-23T04:11:20;95092.47;;;-6.03;80.74
69570;BME280;56781;42.292;23.146;2024-03-23T04:13:48;95455.06;;;-3.99;81.44
69570;BME280;56781;42.292;23.146;2024-03-23T04:16:25;95092.63;;;-6.08;82.88
69570;BME280;56781;42.292;23.146;2024-03-23T04:18:53;95500.41;;;-3.25;82.02
69570;BME280;56781;42.292;23.146;2024-03-23T04:21:20;95583.50;;;-3.13;82.14
69570;BME280;56781;42.292;23.146;2024-03-23T04:23:49;95572.44;;;-3.37;84.06
69570;BME280;56781;42.292;23.146;2024-03-23T04:26:15;94936.66;;;-7.37;83.41
69570;BME280;56781;42.292;23.146;2024-03-23T04:28:43;95566.81;;;-3.09;81.48
69570;BME280;56781;42.292;23.146;2024-03-23T04:31:09;94722.88;;;-8.73;80.85
69570;BME280;56781;42.292;23.146;2024-03-23T04:33:37;95571.22;;;-3.14;81.97
69570;BME280;56781;42.292;23.146;2024-03-23T04:36:03;95108.50;;;-6.56;81.95
69570;BME280;56781;42.292;23.146;2024-03-23T04:38:33;94874.09;;;-8.19;81.64
69570;BME280;56781;42.292;23.146;2024-03-23T04:41:01;95160.25;;;-6.40;82.06
69570;BME280;56781;42.292;23.146;2024-03-23T04:43:29;95149.84;;;-6.19;82.51
69570;BME280;56781;42.292;23.146;2024-03-23T04:45:56;94925.09;;;-7.10;81.55
69570;BME280;56781;42.292;23.146;2024-03-23T04:48:24;95558.44;;;-2.64;80.81
69570;BME280;56781;42.292;23.146;2024-03-23T04:50:54;95247.94;;;-4.84;77.60
69570;BME280;56781;42.292;23.146;2024-03-23T04:53:23;95309.06;;;-4.48;78.53
69570;BME280;56781;42.292;23.146;2024-03-23T04:55:54;95195.03;;;-5.65;80.82
69570;BME280;56781;42.292;23.146;2024-03-23T04:58:22;95092.03;;;-5.87;80.12
69570;BME280;56781;42.292;23.146;2024-03-23T05:00:53;95487.81;;;-2.98;79.85
69570;BME280;56781;42.292;23.146;2024-03-23T05:03:20;94867.75;;;-7.33;79.71
69570;BME280;56781;42.292;23.146;2024-03-23T05:05:47;95440.13;;;-4.09;81.97
69570;BME280;56781;42.292;23.146;2024-03-23T05:08:14;95208.19;;;-5.69;83.66
69570;BME280;56781;42.292;23.146;2024-03-23T05:10:41;94836.47;;;-7.99;82.38
69570;BME280;56781;42.292;23.146;2024-03-23T05:13:08;94893.88;;;-7.58;82.74
69570;BME280;56781;42.292;23.146;2024-03-23T05:15:37;95061.94;;;-6.45;83.99
69570;BME280;56781;42.292;23.146;2024-03-23T05:18:04;95509.72;;;-3.31;84.41
69570;BME280;56781;42.292;23.146;2024-03-23T05:20:32;95211.97;;;-5.13;83.30
69570;BME280;56781;42.292;23.146;2024-03-23T05:22:58;95461.06;;;-3.16;83.29
69570;BME280;56781;42.292;23.146;2024-03-23T05:25:26;94821.59;;;-7.15;83.03
69570;BME280;56781;42.292;23.146;2024-03-23T05:27:52;95193.50;;;-4.48;82.67
69570;BME280;56781;42.292;23.146;2024-03-23T05:30:19;95560.31;;;-1.92;82.09
69570;BME280;56781;42.292;23.146;2024-03-23T05:32:47;95251.50;;;-3.58;81.32
69570;BME280;56781;42.292;23.146;2024-03-23T05:35:14;95350.44;;;-2.13;79.49
69570;BME280;56781;42.292;23.146;2024-03-23T05:37:41;95544.59;;;0.11;76.03
69570;BME280;56781;42.292;23.146;2024-03-23T05:40:09;95110.81;;;-1.42;71.92
69570;BME280;56781;42.292;23.146;2024-03-23T05:42:35;95088.00;;;-0.83;67.80
69570;BME280;56781;42.292;23.146;2024-03-23T05:45:03;95173.28;;;1.15;63.60
69570;BME280;56781;42.292;23.146;2024-03-23T05:47:32;95106.63;;;1.90;60.41
69570;BME280;56781;42.292;23.146;2024-03-23T05:50:01;95571.16;;;4.14;60.66
69570;BME280;56781;42.292;23.146;2024-03-23T05:52:27;95248.66;;;1.82;61.99
69570;BME280;56781;42.292;23.146;2024-03-23T05:54:55;95327.63;;;2.18;63.00
69570;BME280;56781;42.292;23.146;2024-03-23T05:57:21;95591.56;;;5.34;59.43
69570;BME280;56781;42.292;23.146;2024-03-23T05:59:48;95048.06;;;3.50;52.45
69570;BME280;56781;42.292;23.146;2024-03-23T06:02:14;95552.13;;;7.91;49.83
69570;BME280;56781;42.292;23.146;2024-03-23T06:04:42;95566.50;;;7.85;50.24
69570;BME280;56781;42.292;23.146;2024-03-23T06:07:10;95324.50;;;6.24;49.76
69570;BME280;56781;42.292;23.146;2024-03-23T06:09:39;95228.84;;;6.84;48.70
69570;BME280;56781;42.292;23.146;2024-03-23T06:12:07;95231.13;;;7.97;45.33
69570;BME280;56781;42.292;23.146;2024-03-23T06:14:33;95561.13;;;10.82;43.13
69570;BME280;56781;42.292;23.146;2024-03-23T06:17:00;95328.72;;;9.37;43.92
69570;BME280;56781;42.292;23.146;2024-03-23T06:19:27;95255.69;;;9.44;42.55
69570;BME280;56781;42.292;23.146;2024-03-23T06:21:54;95462.22;;;12.14;39.90
69570;BME280;56781;42.292;23.146;2024-03-23T06:24:22;95292.34;;;11.56;38.22
69570;BME280;56781;42.292;23.146;2024-03-23T06:26:50;95069.56;;;10.96;36.02
69570;BME280;56781;42.292;23.146;2024-03-23T06:29:16;95459.06;;;12.15;38.62
69570;BME280;56781;42.292;23.146;2024-03-23T06:31:43;95437.06;;;11.00;39.71
69570;BME280;56781;42.292;23.146;2024-03-23T06:34:09;95048.25;;;8.61;40.38
69570;BME280;56781;42.292;23.146;2024-03-23T06:36:38;95028.22;;;8.79;40.78
69570;BME280;56781;42.292;23.146;2024-03-23T06:39:04;95480.28;;;13.05;37.76
69570;BME280;56781;42.292;23.146;2024-03-23T06:41:33;95240.06;;;11.70;36.40
69570;BME280;56781;42.292;23.146;2024-03-23T06:44:01;95100.47;;;11.20;34.58
69570;BME280;56781;42.292;23.146;2024-03-23T06:46:28;95273.66;;;10.97;37.68
69570;BME280;56781;42.292;23.146;2024-03-23T06:48:54;95543.56;;;15.40;33.57
69570;BME280;56781;42.292;23.146;2024-03-23T06:51:22;95504.16;;;15.26;32.53
69570;BME280;56781;42.292;23.146;2024-03-23T06:53:49;95049.28;;;12.69;33.02
69570;BME280;56781;42.292;23.146;2024-03-23T06:56:16;95284.31;;;14.63;30.30
69570;BME280;56781;42.292;23.146;2024-03-23T06:58:44;95351.94;;;14.93;31.41
69570;BME280;56781;42.292;23.146;2024-03-23T07:01:11;95156.13;;;14.20;30.38
69570;BME280;56781;42.292;23.146;2024-03-23T07:03:37;94992.81;;;13.88;29.00
69570;BME280;56781;42.292;23.146;2024-03-23T07:06:05;95130.53;;;12.99;33.00
69570;BME280;56781;42.292;23.146;2024-03-23T07:08:31;95228.06;;;13.57;32.13
69570;BME280;56781;42.292;23.146;2024-03-23T07:10:59;95262.91;;;13.27;35.27
69570;BME280;56781;42.292;23.146;2024-03-23T07:13:25;95449.56;;;14.43;34.63
69570;BME280;56781;42.292;23.146;2024-03-23T07:15:54;95539.47;;;15.90;32.53
69570;BME280;56781;42.292;23.146;2024-03-23T07:18:21;95360.75;;;13.93;34.86
69570;BME280;56781;42.292;23.146;2024-03-23T07:20:53;94925.97;;;11.24;32.79
69570;BME280;56781;42.292;23.146;2024-03-23T07:23:19;95201.09;;;15.36;30.92
69570;BME280;56781;42.292;23.146;2024-03-23T07:25:56;95229.63;;;15.03;30.39
69570;BME280;56781;42.292;23.146;2024-03-23T07:28:22;95215.94;;;15.89;29.76
69570;BME280;56781;42.292;23.146;2024-03-23T07:31:04;95506.41;;;16.79;32.34
69570;BME280;56781;42.292;23.146;2024-03-23T07:33:32;95055.44;;;12.04;34.05
69570;BME280;56781;42.292;23.146;2024-03-23T07:35:59;94979.50;;;11.05;33.06
69570;BME280;56781;42.292;23.146;2024-03-23T07:38:27;95004.63;;;12.52;32.66
69570;BME280;56781;42.292;23.146;2024-03-23T07:41:02;95108.75;;;13.08;31.01
69570;BME280;56781;42.292;23.146;2024-03-23T07:43:30;95244.91;;;14.66;31.18
69570;BME280;56781;42.292;23.146;2024-03-23T07:45:56;95517.09;;;17.03;30.32
69570;BME280;56781;42.292;23.146;2024-03-23T07:48:25;95324.88;;;14.75;33.03
69570;BME280;56781;42.292;23.146;2024-03-23T07:50:59;95495.31;;;15.48;32.77
69570;BME280;56781;42.292;23.146;2024-03-23T07:53:26;95057.84;;;12.38;33.30
69570;BME280;56781;42.292;23.146;2024-03-23T07:55:54;95403.78;;;14.00;36.45
69570;BME280;56781;42.292;23.146;2024-03-23T07:58:22;95162.72;;;13.15;34.02
69570;BME280;56781;42.292;23.146;2024-03-23T08:00:48;95266.50;;;13.60;35.82
69570;BME280;56781;42.292;23.146;2024-03-23T08:03:16;95027.78;;;12.51;35.39
69570;BME280;56781;42.292;23.146;2024-03-23T08:05:43;95296.97;;;13.82;34.49
69570;BME280;56781;42.292;23.146;2024-03-23T08:08:10;95205.81;;;12.26;35.84
69570;BME280;56781;42.292;23.146;2024-03-23T08:10:37;95165.81;;;13.01;34.10
69570;BME280;56781;42.292;23.146;2024-03-23T08:13:04;95421.72;;;15.03;33.28
69570;BME280;56781;42.292;23.146;2024-03-23T08:15:31;94986.59;;;11.62;35.29
69570;BME280;56781;42.292;23.146;2024-03-23T08:18:00;95138.75;;;12.99;34.02
69570;BME280;56781;42.292;23.146;2024-03-23T08:20:26;95484.31;;;16.28;32.59
69570;BME280;56781;42.292;23.146;2024-03-23T08:22:55;95434.56;;;15.22;33.61
69570;BME280;56781;42.292;23.146;2024-03-23T08:25:21;94892.53;;;10.29;34.92
69570;BME280;56781;42.292;23.146;2024-03-23T08:27:48;95141.94;;;11.85;35.60
69570;BME280;56781;42.292;23.146;2024-03-23T08:30:15;95481.22;;;14.84;35.45
69570;BME280;56781;42.292;23.146;2024-03-23T08:32:42;95482.28;;;15.48;34.33
69570;BME280;56781;42.292;23.146;2024-03-23T08:35:08;95253.53;;;12.88;36.13
69570;BME280;56781;42.292;23.146;2024-03-23T08:37:36;94966.81;;;11.91;35.83
69570;BME280;56781;42.292;23.146;2024-03-23T08:40:04;95270.00;;;13.77;33.47
69570;BME280;56781;42.292;23.146;2024-03-23T08:42:32;95106.94;;;12.33;33.80
69570;BME280;56781;42.292;23.146;2024-03-23T08:44:58;94932.19;;;10.84;34.93
69570;BME280;56781;42.292;23.146;2024-03-23T08:47:25;95352.28;;;13.68;33.65
69570;BME280;56781;42.292;23.146;2024-03-23T08:49:52;94757.06;;;10.05;34.42
69570;BME280;56781;42.292;23.146;2024-03-23T08:52:19;95180.25;;;12.69;34.72
69570;BME280;56781;42.292;23.146;2024-03-23T08:54:45;94946.94;;;11.30;34.05
69570;BME280;56781;42.292;23.146;2024-03-23T08:57:14;94912.75;;;10.79;35.13
69570;BME280;56781;42.292;23.146;2024-03-23T08:59:40;95194.06;;;12.45;35.00
69570;BME280;56781;42.292;23.146;2024-03-23T09:02:08;95188.66;;;12.22;35.57
69570;BME280;56781;42.292;23.146;2024-03-23T09:04:34;95075.41;;;10.98;36.70
69570;BME280;56781;42.292;23.146;2024-03-23T09:07:02;95362.38;;;12.98;36.72
69570;BME280;56781;42.292;23.146;2024-03-23T09:09:28;95355.44;;;12.70;37.25
69570;BME280;56781;42.292;23.146;2024-03-23T09:11:55;95135.44;;;11.08;38.44
69570;BME280;56781;42.292;23.146;2024-03-23T09:14:23;94905.78;;;10.04;39.16
69570;BME280;56781;42.292;23.146;2024-03-23T09:16:50;94828.59;;;9.49;38.78
69570;BME280;56781;42.292;23.146;2024-03-23T09:19:17;94965.88;;;10.34;36.73
69570;BME280;56781;42.292;23.146;2024-03-23T09:21:44;95044.34;;;11.08;38.06
69570;BME280;56781;42.292;23.146;2024-03-23T09:24:10;94858.44;;;9.87;40.18
69570;BME280;56781;42.292;23.146;2024-03-23T09:26:37;95129.66;;;11.50;38.20
69570;BME280;56781;42.292;23.146;2024-03-23T09:29:04;95259.97;;;12.61;37.30
69570;BME280;56781;42.292;23.146;2024-03-23T09:31:33;95265.59;;;12.74;39.31
69570;BME280;56781;42.292;23.146;2024-03-23T09:33:59;94854.53;;;10.11;38.27
69570;BME280;56781;42.292;23.146;2024-03-23T09:36:26;94898.69;;;10.57;38.80
69570;BME280;56781;42.292;23.146;2024-03-23T09:38:53;94946.34;;;10.79;36.86
69570;BME280;56781;42.292;23.146;2024-03-23T09:41:20;95077.78;;;11.63;38.44
69570;BME280;56781;42.292;23.146;2024-03-23T09:43:46;94729.31;;;9.63;36.48
69570;BME280;56781;42.292;23.146;2024-03-23T09:46:15;95091.16;;;12.37;36.56
69570;BME280;56781;42.292;23.146;2024-03-23T09:48:43;95105.13;;;12.79;36.58
69570;BME280;56781;42.292;23.146;2024-03-23T09:51:12;95160.13;;;13.08;38.38
69570;BME280;56781;42.292;23.146;2024-03-23T09:53:39;94855.44;;;10.92;38.69
69570;BME280;56781;42.292;23.146;2024-03-23T09:56:07;95153.34;;;12.80;36.69
69570;BME280;56781;42.292;23.146;2024-03-23T09:58:34;95040.34;;;11.76;37.57
69570;BME280;56781;42.292;23.146;2024-03-23T10:01:02;95337.34;;;14.18;37.97
69570;BME280;56781;42.292;23.146;2024-03-23T10:03:29;94998.63;;;12.05;36.43
69570;BME280;56781;42.292;23.146;2024-03-23T10:06:04;95033.03;;;12.26;36.38
69570;BME280;56781;42.292;23.146;2024-03-23T10:08:30;95024.94;;;12.55;35.90
69570;BME280;56781;42.292;23.146;2024-03-23T10:11:12;94954.34;;;12.06;35.20
69570;BME280;56781;42.292;23.146;2024-03-23T10:13:41;95046.97;;;12.84;37.51
69570;BME280;56781;42.292;23.146;2024-03-23T10:16:08;95035.16;;;13.16;38.17
69570;BME280;56781;42.292;23.146;2024-03-23T10:18:37;95023.28;;;13.06;35.75
69570;BME280;56781;42.292;23.146;2024-03-23T10:21:10;95279.38;;;14.41;36.11
69570;BME280;56781;42.292;23.146;2024-03-23T10:23:38;95256.41;;;14.32;35.38
69570;BME280;56781;42.292;23.146;2024-03-23T10:26:16;95269.72;;;14.50;34.64
69570;BME280;56781;42.292;23.146;2024-03-23T10:28:53;94765.84;;;11.12;36.94
69570;BME280;56781;42.292;23.146;2024-03-23T10:31:20;95287.59;;;14.58;34.06
69570;BME280;56781;42.292;23.146;2024-03-23T10:33:47;95244.66;;;14.31;37.54
69570;BME280;56781;42.292;23.146;2024-03-23T10:36:18;94969.72;;;12.36;35.87
69570;BME280;56781;42.292;23.146;2024-03-23T10:38:46;95076.81;;;13.15;35.14
69570;BME280;56781;42.292;23.146;2024-03-23T10:41:14;94788.13;;;11.30;33.33
69570;BME280;56781;42.292;23.146;2024-03-23T10:43:40;95154.56;;;13.61;31.15
69570;BME280;56781;42.292;23.146;2024-03-23T10:46:08;95254.56;;;14.58;32.44
69570;BME280;56781;42.292;23.146;2024-03-23T10:48:35;94727.72;;;11.21;30.43
69570;BME280;56781;42.292;23.146;2024-03-23T10:51:02;94955.63;;;13.13;29.61
69570;BME280;56781;42.292;23.146;2024-03-23T10:53:33;94996.97;;;13.80;30.48
69570;BME280;56781;42.292;23.146;2024-03-23T10:56:03;94939.06;;;13.16;28.96
69570;BME280;56781;42.292;23.146;2024-03-23T10:58:31;94799.91;;;12.71;28.76
69570;BME280;56781;42.292;23.146;2024-03-23T11:01:00;94846.66;;;13.09;29.60
69570;BME280;56781;42.292;23.146;2024-03-23T11:03:33;95095.13;;;15.02;26.50
69570;BME280;56781;42.292;23.146;2024-03-23T11:06:03;94514.53;;;10.94;26.58
69570;BME280;56781;42.292;23.146;2024-03-23T11:08:35;94992.16;;;13.97;26.20
69570;BME280;56781;42.292;23.146;2024-03-23T11:11:16;94584.00;;;11.88;28.98
69570;BME280;56781;42.292;23.146;2024-03-23T11:13:43;94968.19;;;14.23;25.73
69570;BME280;56781;42.292;23.146;2024-03-23T11:16:15;94875.94;;;14.44;27.91
69570;BME280;56781;42.292;23.146;2024-03-23T11:18:42;94842.69;;;14.04;26.67
69570;BME280;56781;42.292;23.146;2024-03-23T11:21:10;95212.38;;;16.02;26.37
69570;BME280;56781;42.292;23.146;2024-03-23T11:23:38;94936.91;;;14.43;24.67
69570;BME280;56781;42.292;23.146;2024-03-23T11:26:08;95089.31;;;15.35;25.31
69570;BME280;56781;42.292;23.146;2024-03-23T11:28:34;95072.78;;;15.35;27.06
69570;BME280;56781;42.292;23.146;2024-03-23T11:31:02;94894.56;;;14.27;24.03
69570;BME280;56781;42.292;23.146;2024-03-23T11:33:34;94835.09;;;13.69;26.28
69570;BME280;56781;42.292;23.146;2024-03-23T11:36:02;94867.97;;;14.11;24.94
69570;BME280;56781;42.292;23.146;2024-03-23T11:38:28;94929.22;;;14.37;24.23
69570;BME280;56781;42.292;23.146;2024-03-23T11:41:02;94785.28;;;13.67;24.84
69570;BME280;56781;42.292;23.146;2024-03-23T11:43:28;94542.38;;;11.93;27.01
69570;BME280;56781;42.292;23.146;2024-03-23T11:45:56;94916.00;;;14.32;24.80
69570;BME280;56781;42.292;23.146;2024-03-23T11:48:23;95120.41;;;15.83;26.46
69570;BME280;56781;42.292;23.146;2024-03-23T11:50:56;95143.84;;;16.00;27.79
69570;BME280;56781;42.292;23.146;2024-03-23T11:53:24;94860.47;;;14.12;24.74
69570;BME280;56781;42.292;23.146;2024-03-23T11:55:54;94965.88;;;14.95;25.32
69570;BME280;56781;42.292;23.146;2024-03-23T11:58:23;94623.59;;;13.05;28.09
69570;BME280;56781;42.292;23.146;2024-03-23T12:00:52;95031.41;;;16.13;22.54
69570;BME280;56781;42.292;23.146;2024-03-23T12:03:19;95103.00;;;17.01;23.65
69570;BME280;56781;42.292;23.146;2024-03-23T12:05:49;94658.09;;;14.02;23.60
69570;BME280;56781;42.292;23.146;2024-03-23T12:08:23;95097.19;;;17.09;24.88
69570;BME280;56781;42.292;23.146;2024-03-23T12:10:52;94862.81;;;15.49;23.27
69570;BME280;56781;42.292;23.146;2024-03-23T12:13:19;94800.41;;;15.02;22.28
69570;BME280;56781;42.292;23.146;2024-03-23T12:19:21;94742.78;;;14.85;17.88
69570;BME280;56781;42.292;23.146;2024-03-23T12:21:49;94630.78;;;14.07;19.86
69570;BME280;56781;42.292;23.146;2024-03-23T12:24:15;94539.31;;;13.63;18.76
69570;BME280;56781;42.292;23.146;2024-03-23T12:26:42;95057.91;;;17.14;21.19
69570;BME280;56781;42.292;23.146;2024-03-23T12:29:08;94884.56;;;16.18;20.57
69570;BME280;56781;42.292;23.146;2024-03-23T12:31:35;94888.91;;;16.38;20.61
69570;BME280;56781;42.292;23.146;2024-03-23T12:34:01;94913.22;;;16.12;20.73
69570;BME280;56781;42.292;23.146;2024-03-23T12:36:28;94672.09;;;14.38;21.41
69570;BME280;56781;42.292;23.146;2024-03-23T12:38:54;94856.50;;;16.11;22.62
69570;BME280;56781;42.292;23.146;2024-03-23T12:41:21;95035.47;;;17.12;21.81
69570;BME280;56781;42.292;23.146;2024-03-23T12:43:49;94868.41;;;15.99;21.55
69570;BME280;56781;42.292;23.146;2024-03-23T12:46:16;94698.81;;;15.04;22.38
69570;BME280;56781;42.292;23.146;2024-03-23T12:48:44;94731.16;;;15.62;21.64
69570;BME280;56781;42.292;23.146;2024-03-23T12:51:11;94736.00;;;15.49;25.12
69570;BME280;56781;42.292;23.146;2024-03-23T12:53:37;94587.66;;;14.26;21.00
69570;BME280;56781;42.292;23.146;2024-03-23T12:56:05;94762.00;;;15.70;22.63
69570;BME280;56781;42.292;23.146;2024-03-23T12:58:31;94715.03;;;15.42;21.28
69570;BME280;56781;42.292;23.146;2024-03-23T13:00:58;94882.97;;;16.76;22.02
69570;BME280;56781;42.292;23.146;2024-03-23T13:03:24;94939.53;;;16.94;20.27
69570;BME280;56781;42.292;23.146;2024-03-23T13:05:52;94686.63;;;15.23;21.89
69570;BME280;56781;42.292;23.146;2024-03-23T13:08:18;94632.44;;;15.20;22.83
69570;BME280;56781;42.292;23.146;2024-03-23T13:10:45;94698.72;;;15.76;20.91
69570;BME280;56781;42.292;23.146;2024-03-23T13:13:12;94563.97;;;15.00;22.17
69570;BME280;56781;42.292;23.146;2024-03-23T13:15:39;94685.84;;;15.72;21.44
69570;BME280;56781;42.292;23.146;2024-03-23T13:18:05;94450.56;;;13.84;20.50
69570;BME280;56781;42.292;23.146;2024-03-23T13:20:35;94682.28;;;15.54;21.82
69570;BME280;56781;42.292;23.146;2024-03-23T13:23:02;94978.84;;;17.44;21.42
69570;BME280;56781;42.292;23.146;2024-03-23T13:25:29;94511.66;;;14.51;21.80
69570;BME280;56781;42.292;23.146;2024-03-23T13:27:55;94837.13;;;16.88;20.83
69570;BME280;56781;42.292;23.146;2024-03-23T13:30:22;94783.41;;;16.25;22.45
69570;BME280;56781;42.292;23.146;2024-03-23T13:32:48;94648.06;;;15.23;21.95
69570;BME280;56781;42.292;23.146;2024-03-23T13:35:16;94620.81;;;15.25;21.87
69570;BME280;56781;42.292;23.146;2024-03-23T13:37:42;94578.34;;;14.95;22.02
69570;BME280;56781;42.292;23.146;2024-03-23T13:40:09;94647.41;;;15.78;23.80
69570;BME280;56781;42.292;23.146;2024-03-23T13:42:35;94651.25;;;15.71;22.92
69570;BME280;56781;42.292;23.146;2024-03-23T13:45:03;94420.94;;;13.88;22.39
69570;BME280;56781;42.292;23.146;2024-03-23T13:47:29;94804.88;;;16.57;23.77
69570;BME280;56781;42.292;23.146;2024-03-23T13:49:56;94522.16;;;14.83;24.99